createdAt,value
2017-11-21T00:01:07.550Z,9.70
2017-11-21T00:03:35.176Z,9.70
2017-11-21T00:06:03.400Z,9.70
2017-11-21T00:08:30.884Z,9.70
2017-11-21T00:10:59.156Z,9.70
2017-11-21T00:13:26.602Z,9.70
2017-11-21T00:15:54.051Z,9.80
2017-11-21T00:18:21.582Z,9.80
2017-11-21T00:20:49.801Z,9.80
2017-11-21T00:23:17.308Z,9.80
2017-11-21T00:25:44.792Z,9.80
2017-11-21T00:28:12.261Z,9.80
2017-11-21T00:30:39.852Z,9.90
2017-11-21T00:33:07.306Z,9.90
2017-11-21T00:35:34.753Z,9.90
2017-11-21T00:38:02.268Z,9.90
2017-11-21T00:40:29.720Z,9.90
2017-11-21T00:42:57.181Z,9.90
2017-11-21T00:45:24.681Z,9.90
2017-11-21T00:47:52.147Z,10.00
2017-11-21T00:50:19.623Z,10.00
2017-11-21T00:52:47.852Z,10.00
2017-11-21T00:55:15.302Z,10.00
2017-11-21T00:57:42.817Z,10.00
2017-11-21T01:00:10.310Z,10.10
2017-11-21T01:02:37.778Z,10.10
2017-11-21T01:05:05.234Z,10.10
2017-11-21T01:07:32.754Z,10.10
2017-11-21T01:10:01.032Z,10.10
2017-11-21T01:12:28.490Z,10.10
2017-11-21T01:14:56.791Z,10.10
2017-11-21T01:17:24.262Z,10.10
2017-11-21T01:19:51.773Z,10.20
2017-11-21T01:22:19.272Z,10.20
2017-11-21T01:24:46.730Z,10.20
2017-11-21T01:27:14.247Z,10.20
2017-11-21T01:29:41.752Z,10.20
2017-11-21T01:32:10.016Z,10.20
2017-11-21T01:34:38.248Z,10.20
2017-11-21T01:37:05.717Z,10.20
2017-11-21T01:39:33.223Z,10.20
2017-11-21T01:42:01.481Z,10.30
2017-11-21T01:44:28.977Z,10.30
2017-11-21T01:46:57.263Z,10.30
2017-11-21T01:49:24.770Z,10.20
2017-11-21T01:51:52.227Z,10.30
2017-11-21T01:54:19.705Z,10.30
2017-11-21T01:56:47.190Z,10.30
2017-11-21T01:59:14.645Z,10.30
2017-11-21T02:01:42.144Z,10.30
2017-11-21T02:04:10.361Z,10.30
2017-11-21T02:06:37.851Z,10.30
2017-11-21T02:09:05.313Z,10.30
2017-11-21T02:11:32.821Z,10.30
2017-11-21T02:14:01.030Z,10.30
2017-11-21T02:16:28.511Z,10.30
2017-11-21T02:18:56.003Z,10.30
2017-11-21T02:21:24.231Z,10.30
2017-11-21T02:23:51.754Z,10.30
2017-11-21T02:26:19.233Z,10.30
2017-11-21T02:28:46.701Z,10.30
2017-11-21T02:31:14.205Z,10.30
2017-11-21T02:33:41.681Z,10.30
2017-11-21T02:36:09.140Z,10.30
2017-11-21T02:38:36.614Z,10.30
2017-11-21T02:41:04.884Z,10.30
2017-11-21T02:43:32.347Z,10.20
2017-11-21T02:45:59.795Z,10.30
2017-11-21T02:48:27.312Z,10.30
2017-11-21T02:50:54.814Z,10.30
2017-11-21T02:53:22.327Z,10.30
2017-11-21T02:55:49.783Z,10.30
2017-11-21T02:58:18.018Z,10.40
2017-11-21T03:00:45.532Z,10.40
2017-11-21T03:03:13.195Z,10.40
2017-11-21T03:05:41.484Z,10.40
2017-11-21T03:08:08.945Z,10.40
2017-11-21T03:10:36.409Z,10.40
2017-11-21T03:13:03.912Z,10.40
2017-11-21T03:15:31.373Z,10.40
2017-11-21T03:17:58.862Z,10.40
2017-11-21T03:20:26.328Z,10.40
2017-11-21T03:22:53.832Z,10.50
2017-11-21T03:25:21.293Z,10.50
2017-11-21T03:27:48.778Z,10.50
2017-11-21T03:30:16.312Z,10.50
2017-11-21T03:32:43.734Z,10.50
2017-11-21T03:35:11.230Z,10.50
2017-11-21T03:37:38.697Z,10.50
2017-11-21T03:40:06.206Z,10.50
2017-11-21T03:42:33.664Z,10.50
2017-11-21T03:45:01.224Z,10.50
2017-11-21T03:47:29.483Z,10.60
2017-11-21T03:49:57.199Z,10.60
2017-11-21T03:52:24.727Z,10.60
2017-11-21T03:54:52.222Z,10.60
2017-11-21T03:57:20.464Z,10.60
2017-11-21T03:59:47.936Z,10.60
2017-11-21T04:02:15.433Z,10.60
2017-11-21T04:04:42.897Z,10.60
2017-11-21T04:07:10.431Z,10.60
2017-11-21T04:09:37.897Z,10.60
2017-11-21T04:12:05.366Z,10.60
2017-11-21T04:14:32.820Z,10.60
2017-11-21T04:17:00.343Z,10.70
2017-11-21T04:19:27.792Z,10.60
2017-11-21T04:21:55.247Z,10.60
2017-11-21T04:24:23.467Z,10.60
2017-11-21T04:26:51.110Z,10.60
2017-11-21T04:29:18.648Z,10.70
2017-11-21T04:31:46.081Z,10.70
2017-11-21T04:34:13.573Z,10.70
2017-11-21T04:36:41.209Z,10.70
2017-11-21T04:39:08.683Z,10.70
2017-11-21T04:41:36.191Z,10.70
2017-11-21T04:44:03.696Z,10.70
2017-11-21T04:46:31.191Z,10.70
2017-11-21T04:48:58.740Z,10.70
2017-11-21T04:51:26.148Z,10.70
2017-11-21T04:53:53.629Z,10.70
2017-11-21T04:56:21.114Z,10.70
2017-11-21T04:58:48.604Z,10.70
2017-11-21T05:01:16.072Z,10.70
2017-11-21T05:03:43.552Z,10.70
2017-11-21T05:06:11.797Z,10.70
2017-11-21T05:08:39.314Z,10.70
2017-11-21T05:11:06.833Z,10.70
2017-11-21T05:13:34.300Z,10.70
2017-11-21T05:16:01.835Z,10.70
2017-11-21T05:18:29.280Z,10.70
2017-11-21T05:20:56.919Z,10.70
2017-11-21T05:23:24.370Z,10.70
2017-11-21T05:25:52.632Z,10.80
2017-11-21T05:28:20.119Z,10.70
2017-11-21T05:30:48.363Z,10.80
2017-11-21T05:33:15.821Z,10.80
2017-11-21T05:35:43.342Z,10.80
2017-11-21T05:38:11.236Z,10.80
2017-11-21T05:40:38.626Z,10.80
2017-11-21T05:43:06.158Z,10.80
2017-11-21T05:45:33.611Z,10.80
2017-11-21T05:48:01.839Z,10.80
2017-11-21T05:50:29.290Z,10.80
2017-11-21T05:52:56.906Z,10.80
2017-11-21T05:55:24.416Z,10.80
2017-11-21T05:57:51.869Z,10.80
2017-11-21T06:00:19.387Z,10.90
2017-11-21T06:02:47.091Z,10.80
2017-11-21T06:05:14.581Z,10.90
2017-11-21T06:07:42.042Z,10.90
2017-11-21T06:10:09.526Z,10.90
2017-11-21T06:12:37.033Z,10.90
2017-11-21T06:15:04.665Z,10.90
2017-11-21T06:17:32.194Z,10.80
2017-11-21T06:19:59.714Z,10.80
2017-11-21T06:22:27.201Z,10.80
2017-11-21T06:24:54.714Z,10.90
2017-11-21T06:27:22.181Z,10.90
2017-11-21T06:29:49.671Z,10.90
2017-11-21T06:32:17.924Z,10.90
2017-11-21T06:34:45.392Z,10.80
2017-11-21T06:37:12.896Z,10.90
2017-11-21T06:39:40.382Z,10.90
2017-11-21T06:42:07.857Z,10.90
2017-11-21T06:44:35.351Z,10.90
2017-11-21T06:47:03.571Z,10.90
2017-11-21T06:49:31.049Z,10.90
2017-11-21T06:51:58.543Z,10.90
2017-11-21T06:54:26.010Z,10.90
2017-11-21T06:56:53.473Z,10.90
2017-11-21T06:59:20.929Z,10.90
2017-11-21T07:01:48.630Z,10.90
2017-11-21T07:04:16.156Z,10.90
2017-11-21T07:06:43.622Z,10.90
2017-11-21T07:09:11.148Z,10.90
2017-11-21T07:11:38.651Z,10.90
2017-11-21T07:14:06.134Z,10.90
2017-11-21T07:16:33.581Z,10.90
2017-11-21T07:19:01.073Z,10.90
2017-11-21T07:21:28.558Z,10.90
2017-11-21T07:23:56.070Z,10.90
2017-11-21T07:26:23.558Z,10.90
2017-11-21T07:28:51.095Z,10.90
2017-11-21T07:31:18.596Z,10.90
2017-11-21T07:33:46.867Z,10.90
2017-11-21T07:36:16.735Z,10.90
2017-11-21T07:38:44.286Z,10.90
2017-11-21T07:41:11.767Z,10.90
2017-11-21T07:43:39.207Z,10.90
2017-11-21T07:46:06.748Z,10.90
2017-11-21T07:48:34.167Z,10.90
2017-11-21T07:51:01.656Z,11.00
2017-11-21T07:53:29.946Z,11.00
2017-11-21T07:55:57.448Z,11.00
2017-11-21T07:58:24.960Z,11.00
2017-11-21T08:00:53.233Z,11.00
2017-11-21T08:03:20.723Z,11.00
2017-11-21T08:05:48.996Z,11.00
2017-11-21T08:08:16.576Z,11.00
2017-11-21T08:10:44.030Z,11.00
2017-11-21T08:13:11.540Z,11.10
2017-11-21T08:15:39.037Z,11.10
2017-11-21T08:18:07.305Z,11.00
2017-11-21T08:20:34.827Z,11.00
2017-11-21T08:23:02.285Z,11.00
2017-11-21T08:25:29.750Z,11.00
2017-11-21T08:27:57.249Z,11.00
2017-11-21T08:30:24.798Z,11.00
2017-11-21T08:32:52.259Z,11.00
2017-11-21T08:35:19.764Z,11.00
2017-11-21T08:37:47.233Z,11.00
2017-11-21T08:40:15.477Z,11.00
2017-11-21T08:42:43.000Z,11.00
2017-11-21T08:45:10.489Z,11.10
2017-11-21T08:47:37.982Z,11.10
2017-11-21T08:50:06.218Z,11.10
2017-11-21T08:52:33.661Z,11.00
2017-11-21T08:55:01.183Z,11.10
2017-11-21T08:57:28.631Z,11.10
2017-11-21T08:59:56.103Z,11.10
2017-11-21T09:02:23.612Z,11.10
2017-11-21T09:04:51.102Z,11.10
2017-11-21T09:07:18.568Z,11.10
2017-11-21T09:09:46.051Z,11.20
2017-11-21T09:12:13.572Z,11.20
2017-11-21T09:14:41.038Z,11.10
2017-11-21T09:17:08.501Z,11.20
2017-11-21T09:19:35.992Z,11.20
2017-11-21T09:22:03.467Z,11.20
2017-11-21T09:24:31.017Z,11.10
2017-11-21T09:26:58.471Z,11.10
2017-11-21T09:29:25.980Z,11.20
2017-11-21T09:31:54.246Z,11.20
2017-11-21T09:34:21.785Z,11.20
2017-11-21T09:36:49.248Z,11.20
2017-11-21T09:39:16.853Z,11.20
2017-11-21T09:41:44.353Z,11.20
2017-11-21T09:44:11.861Z,11.20
2017-11-21T09:46:40.101Z,11.20
2017-11-21T09:49:07.595Z,11.20
2017-11-21T09:51:35.290Z,11.20
2017-11-21T09:54:02.733Z,11.30
2017-11-21T09:56:30.221Z,11.50
2017-11-21T09:58:57.713Z,11.30
2017-11-21T10:01:25.181Z,11.30
2017-11-21T10:03:52.714Z,11.30
2017-11-21T10:06:20.168Z,11.30
2017-11-21T10:08:47.662Z,11.20
2017-11-21T10:11:15.870Z,11.20
2017-11-21T10:13:43.381Z,11.20
2017-11-21T10:16:10.853Z,11.20
2017-11-21T10:18:38.328Z,11.20
2017-11-21T10:21:05.808Z,11.20
2017-11-21T10:23:33.304Z,11.30
2017-11-21T10:26:01.915Z,11.30
2017-11-21T10:28:29.501Z,11.20
2017-11-21T10:30:57.728Z,11.20
2017-11-21T10:33:25.966Z,11.20
2017-11-21T10:35:53.436Z,11.20
2017-11-21T10:38:20.895Z,11.20
2017-11-21T10:40:48.445Z,11.20
2017-11-21T10:43:15.870Z,11.20
2017-11-21T10:45:43.390Z,11.20
2017-11-21T10:48:11.630Z,11.20
2017-11-21T10:50:39.872Z,11.20
2017-11-21T10:53:07.382Z,11.20
2017-11-21T10:55:34.858Z,11.20
2017-11-21T10:58:02.360Z,11.20
2017-11-21T11:00:29.802Z,11.30
2017-11-21T11:02:57.282Z,11.30
2017-11-21T11:05:24.729Z,11.30
2017-11-21T11:07:52.222Z,11.20
2017-11-21T11:10:19.678Z,11.30
2017-11-21T11:12:47.186Z,11.30
2017-11-21T11:15:14.639Z,11.30
2017-11-21T11:17:42.107Z,11.20
2017-11-21T11:20:09.637Z,11.30
2017-11-21T11:22:37.879Z,11.30
2017-11-21T11:25:05.360Z,11.30
2017-11-21T11:27:32.842Z,11.30
2017-11-21T11:30:00.332Z,11.30
2017-11-21T11:32:27.800Z,11.30
2017-11-21T11:34:55.271Z,11.30
2017-11-21T11:37:22.756Z,11.20
2017-11-21T11:39:50.214Z,11.30
2017-11-21T11:42:17.757Z,11.30
2017-11-21T11:44:45.336Z,11.30
2017-11-21T11:47:13.545Z,11.20
2017-11-21T11:49:41.811Z,11.20
2017-11-21T11:52:09.287Z,11.20
2017-11-21T11:54:36.771Z,11.20
2017-11-21T11:57:05.080Z,11.30
2017-11-21T11:59:32.570Z,11.20
2017-11-21T12:02:00.010Z,11.30
2017-11-21T12:04:27.484Z,11.30
2017-11-21T12:06:55.020Z,11.30
2017-11-21T12:09:22.506Z,11.30
2017-11-21T12:11:50.005Z,11.30
2017-11-21T12:14:17.580Z,11.30
2017-11-21T12:16:45.001Z,11.30
2017-11-21T12:19:12.526Z,11.30
2017-11-21T12:21:39.963Z,11.30
2017-11-21T12:24:07.494Z,11.30
2017-11-21T12:26:34.961Z,11.30
2017-11-21T12:29:02.452Z,11.30
2017-11-21T12:31:29.972Z,11.30
2017-11-21T12:33:57.457Z,11.30
2017-11-21T12:36:24.904Z,11.30
2017-11-21T12:38:52.501Z,11.30
2017-11-21T12:41:19.952Z,11.30
2017-11-21T12:43:47.460Z,11.30
2017-11-21T12:46:15.717Z,11.30
2017-11-21T12:48:43.180Z,11.30
2017-11-21T12:51:10.780Z,11.30
2017-11-21T12:53:38.186Z,11.30
2017-11-21T12:56:05.649Z,11.30
2017-11-21T12:58:33.153Z,11.30
2017-11-21T13:01:00.603Z,11.30
2017-11-21T13:03:29.598Z,11.30
2017-11-21T13:05:57.074Z,11.30
2017-11-21T13:08:25.336Z,11.30
2017-11-21T13:10:52.998Z,11.30
2017-11-21T13:13:20.474Z,11.30
2017-11-21T13:15:48.730Z,11.30
2017-11-21T13:18:16.175Z,11.30
2017-11-21T13:20:43.708Z,11.30
2017-11-21T13:23:11.223Z,11.40
2017-11-21T13:25:38.693Z,11.40
2017-11-21T13:28:06.142Z,11.40
2017-11-21T13:30:33.631Z,11.30
2017-11-21T13:33:01.208Z,11.30
2017-11-21T13:35:29.459Z,11.30
2017-11-21T13:37:56.949Z,11.30
2017-11-21T13:40:25.291Z,11.50
2017-11-21T13:42:52.802Z,11.40
2017-11-21T13:45:21.066Z,11.30
2017-11-21T13:47:48.573Z,11.30
2017-11-21T13:50:16.092Z,11.30
2017-11-21T13:52:43.614Z,11.30
2017-11-21T13:55:11.827Z,11.20
2017-11-21T13:57:39.380Z,11.10
2017-11-21T14:00:06.879Z,11.20
2017-11-21T14:02:35.144Z,11.10
2017-11-21T14:05:02.647Z,11.10
2017-11-21T14:07:30.136Z,11.10
2017-11-21T14:09:57.641Z,11.10
2017-11-21T14:12:25.945Z,11.10
2017-11-21T14:14:53.462Z,11.10
2017-11-21T14:17:20.995Z,11.10
2017-11-21T14:19:49.252Z,11.10
2017-11-21T14:22:17.529Z,11.10
2017-11-21T14:24:45.748Z,11.10
2017-11-21T14:27:13.313Z,11.10
2017-11-21T14:29:40.797Z,11.10
2017-11-21T14:32:08.270Z,11.10
2017-11-21T14:34:35.774Z,11.10
2017-11-21T14:37:03.294Z,11.10
2017-11-21T14:39:30.752Z,11.10
2017-11-21T14:41:58.269Z,11.10
2017-11-21T14:44:25.744Z,11.10
2017-11-21T14:46:53.280Z,11.10
2017-11-21T14:49:21.501Z,11.10
2017-11-21T14:51:49.005Z,11.10
2017-11-21T14:54:17.299Z,11.00
2017-11-21T14:56:44.755Z,11.00
2017-11-21T14:59:13.463Z,11.00
2017-11-21T15:01:41.063Z,11.00
2017-11-21T15:04:08.557Z,10.90
2017-11-21T15:06:36.880Z,10.90
2017-11-21T15:09:04.376Z,10.90
2017-11-21T15:11:32.152Z,10.90
2017-11-21T15:13:59.641Z,10.80
2017-11-21T15:16:27.872Z,10.80
2017-11-21T15:18:55.335Z,10.80
2017-11-21T15:21:23.605Z,10.80
2017-11-21T15:23:51.096Z,10.80
2017-11-21T15:26:18.597Z,10.80
2017-11-21T15:28:46.138Z,10.80
2017-11-21T15:31:13.598Z,10.80
2017-11-21T15:33:41.168Z,10.80
2017-11-21T15:36:08.643Z,10.70
2017-11-21T15:38:36.529Z,10.70
2017-11-21T15:41:04.041Z,10.70
2017-11-21T15:43:31.534Z,10.60
2017-11-21T15:45:59.054Z,10.60
2017-11-21T15:48:26.556Z,10.60
2017-11-21T15:50:54.046Z,10.60
2017-11-21T15:53:21.515Z,10.60
2017-11-21T15:55:49.293Z,10.50
2017-11-21T15:58:16.799Z,10.60
2017-11-21T16:00:44.311Z,10.60
2017-11-21T16:03:12.016Z,10.50
2017-11-21T16:05:40.086Z,10.50
2017-11-21T16:08:08.099Z,10.50
2017-11-21T16:10:35.545Z,10.50
2017-11-21T16:13:03.123Z,10.60
2017-11-21T16:15:30.605Z,10.60
2017-11-21T16:17:58.552Z,10.60
2017-11-21T16:20:26.037Z,10.60
2017-11-21T16:22:54.292Z,10.60
2017-11-21T16:25:21.780Z,10.60
2017-11-21T16:27:49.206Z,10.60
2017-11-21T16:30:16.717Z,10.50
2017-11-21T16:32:44.179Z,10.50
2017-11-21T16:35:11.665Z,10.50
2017-11-21T16:37:39.545Z,10.50
2017-11-21T16:40:07.759Z,10.50
2017-11-21T16:42:35.268Z,10.50
2017-11-21T16:45:03.520Z,10.60
2017-11-21T16:47:31.776Z,10.50
2017-11-21T16:49:59.283Z,10.50
2017-11-21T16:52:27.508Z,10.50
2017-11-21T16:54:55.012Z,10.50
2017-11-21T16:57:23.302Z,10.50
2017-11-21T16:59:51.583Z,10.40
2017-11-21T17:02:19.850Z,10.40
2017-11-21T17:04:48.076Z,10.40
2017-11-21T17:07:15.572Z,10.40
2017-11-21T17:09:43.065Z,10.40
2017-11-21T17:12:10.532Z,10.50
2017-11-21T17:14:43.629Z,10.40
2017-11-21T17:17:11.103Z,10.40
2017-11-21T17:19:38.670Z,10.40
2017-11-21T17:22:07.035Z,10.40
2017-11-21T17:24:34.543Z,10.40
2017-11-21T17:27:02.036Z,10.30
2017-11-21T17:29:29.636Z,10.30
2017-11-21T17:31:57.313Z,10.40
2017-11-21T17:34:24.833Z,10.30
2017-11-21T17:36:52.339Z,10.30
2017-11-21T17:39:20.602Z,10.30
2017-11-21T17:41:48.867Z,10.30
2017-11-21T17:44:16.320Z,10.40
2017-11-21T17:46:43.829Z,10.30
2017-11-21T17:49:11.321Z,10.30
2017-11-21T17:51:38.823Z,10.40
2017-11-21T17:54:06.279Z,10.40
2017-11-21T17:56:33.795Z,10.30
2017-11-21T17:59:01.311Z,10.30
2017-11-21T18:01:28.816Z,10.30
2017-11-21T18:03:56.287Z,10.40
2017-11-21T18:06:23.838Z,10.40
2017-11-21T18:08:51.430Z,10.30
2017-11-21T18:11:18.946Z,10.40
2017-11-21T18:13:47.176Z,10.30
2017-11-21T18:16:14.639Z,10.30
2017-11-21T18:18:42.132Z,10.30
2017-11-21T18:21:09.596Z,10.30
2017-11-21T18:23:37.096Z,10.30
2017-11-21T18:26:04.578Z,10.30
2017-11-21T18:28:32.504Z,10.30
2017-11-21T18:30:59.989Z,10.30
2017-11-21T18:33:27.549Z,10.30
2017-11-21T18:35:55.099Z,10.30
2017-11-21T18:38:22.521Z,10.30
2017-11-21T18:40:50.043Z,10.30
2017-11-21T18:43:18.272Z,10.30
2017-11-21T18:45:45.789Z,10.30
2017-11-21T18:48:13.265Z,10.30
2017-11-21T18:50:40.788Z,10.40
2017-11-21T18:53:09.074Z,10.40
2017-11-21T18:55:36.499Z,10.40
2017-11-21T18:58:04.016Z,10.40
2017-11-21T19:00:31.487Z,10.40
2017-11-21T19:02:58.933Z,10.40
2017-11-21T19:05:26.438Z,10.40
2017-11-21T19:07:53.892Z,10.40
2017-11-21T19:10:21.475Z,10.40
2017-11-21T19:12:49.014Z,10.40
2017-11-21T19:15:16.459Z,10.40
2017-11-21T19:17:44.743Z,10.40
2017-11-21T19:20:12.232Z,10.40
2017-11-21T19:22:39.722Z,10.40
2017-11-21T19:25:07.215Z,10.40
2017-11-21T19:27:35.500Z,10.30
2017-11-21T19:30:03.005Z,10.30
2017-11-21T19:32:30.481Z,10.30
2017-11-21T19:34:57.981Z,10.30
2017-11-21T19:37:25.460Z,10.30
2017-11-21T19:39:52.958Z,10.30
2017-11-21T19:42:20.463Z,10.30
2017-11-21T19:44:48.711Z,10.30
2017-11-21T19:47:16.208Z,10.30
2017-11-21T19:49:44.482Z,10.20
2017-11-21T19:52:11.927Z,10.30
2017-11-21T19:54:39.463Z,10.30
2017-11-21T19:57:06.942Z,10.30
2017-11-21T19:59:35.137Z,10.30
2017-11-21T20:02:02.642Z,10.20
2017-11-21T20:04:30.892Z,10.30
2017-11-21T20:06:58.365Z,10.30
2017-11-21T20:09:25.869Z,10.30
2017-11-21T20:11:53.346Z,10.30
2017-11-21T20:14:20.859Z,10.30
2017-11-21T20:16:48.331Z,10.30
2017-11-21T20:19:16.615Z,10.30
2017-11-21T20:21:44.075Z,10.30
2017-11-21T20:24:11.618Z,10.30
2017-11-21T20:26:39.089Z,10.30
2017-11-21T20:29:06.578Z,10.30
2017-11-21T20:31:38.448Z,10.30
2017-11-21T20:34:05.907Z,10.20
2017-11-21T20:36:34.196Z,10.30
2017-11-21T20:39:02.440Z,10.30
2017-11-21T20:41:29.905Z,10.30
2017-11-21T20:43:57.477Z,10.30
2017-11-21T20:46:24.992Z,10.30
2017-11-21T20:48:52.514Z,10.30
2017-11-21T20:51:19.949Z,10.30
2017-11-21T20:53:47.732Z,10.30
2017-11-21T20:56:15.273Z,10.30
2017-11-21T20:58:42.728Z,10.30
2017-11-21T21:01:10.267Z,10.30
2017-11-21T21:03:37.756Z,10.30
2017-11-21T21:06:05.293Z,10.30
2017-11-21T21:08:32.797Z,10.30
2017-11-21T21:11:00.287Z,10.30
2017-11-21T21:13:27.792Z,10.30
2017-11-21T21:15:55.397Z,10.30
2017-11-21T21:18:22.816Z,10.30
2017-11-21T21:20:50.336Z,10.30
2017-11-21T21:23:17.790Z,10.40
2017-11-21T21:25:45.290Z,10.40
2017-11-21T21:28:12.791Z,10.40
2017-11-21T21:30:40.275Z,10.40
2017-11-21T21:33:07.742Z,10.40
2017-11-21T21:35:35.250Z,10.40
2017-11-21T21:38:02.751Z,10.40
2017-11-21T21:40:30.256Z,10.40
2017-11-21T21:42:58.482Z,10.40
2017-11-21T21:45:25.966Z,10.40
2017-11-21T21:47:53.452Z,10.30
2017-11-21T21:50:21.678Z,10.40
2017-11-21T21:52:49.228Z,10.40
2017-11-21T21:55:17.447Z,10.40
2017-11-21T21:57:44.923Z,10.40
2017-11-21T22:00:12.441Z,10.40
2017-11-21T22:02:39.921Z,10.40
2017-11-21T22:05:07.406Z,10.40
2017-11-21T22:07:34.942Z,10.40
2017-11-21T22:10:02.415Z,10.40
2017-11-21T22:12:29.925Z,10.40
2017-11-21T22:14:58.192Z,10.40
2017-11-21T22:17:26.422Z,10.40
2017-11-21T22:19:53.909Z,10.40
2017-11-21T22:22:21.428Z,10.40
2017-11-21T22:24:48.908Z,10.40
2017-11-21T22:27:16.410Z,10.40
2017-11-21T22:29:44.216Z,10.40
2017-11-21T22:32:11.705Z,10.40
2017-11-21T22:34:39.257Z,10.40
2017-11-21T22:37:06.822Z,10.40
2017-11-21T22:39:34.257Z,10.40
2017-11-21T22:42:07.928Z,10.40
2017-11-21T22:44:35.418Z,10.40
2017-11-21T22:47:03.652Z,10.40
2017-11-21T22:49:31.107Z,10.40
2017-11-21T22:51:58.611Z,10.30
2017-11-21T22:54:26.847Z,10.30
2017-11-21T22:56:54.360Z,10.30
2017-11-21T22:59:21.787Z,10.30
2017-11-21T23:01:49.301Z,10.40
2017-11-21T23:04:17.530Z,10.30
2017-11-21T23:06:45.044Z,10.30
2017-11-21T23:09:12.514Z,10.30
2017-11-21T23:11:40.047Z,10.30
2017-11-21T23:14:07.509Z,10.30
2017-11-21T23:16:35.039Z,10.30
2017-11-21T23:19:02.491Z,10.30
2017-11-21T23:21:29.972Z,10.30
2017-11-21T23:23:57.480Z,10.30
2017-11-21T23:26:24.950Z,10.30
2017-11-21T23:28:52.429Z,10.30
2017-11-21T23:31:19.994Z,10.30
2017-11-21T23:33:47.549Z,10.30
2017-11-21T23:36:14.993Z,10.30
2017-11-21T23:38:43.266Z,10.20
2017-11-21T23:41:10.752Z,10.20
2017-11-21T23:43:38.210Z,10.20
2017-11-21T23:46:05.805Z,10.20
2017-11-21T23:48:33.267Z,10.20
2017-11-21T23:51:00.712Z,10.30
2017-11-21T23:53:28.241Z,10.20
2017-11-21T23:55:55.726Z,10.20
2017-11-21T23:58:23.229Z,10.30
